createdAt,value
2018-08-12T00:00:07.576Z,57.95
2018-08-12T00:00:17.616Z,57.86
2018-08-12T00:00:27.627Z,57.66
2018-08-12T00:00:37.646Z,57.66
2018-08-12T00:00:47.653Z,57.86
2018-08-12T00:00:57.689Z,57.86
2018-08-12T00:01:07.686Z,57.76
2018-08-12T00:01:17.686Z,57.66
2018-08-12T00:01:27.706Z,57.86
2018-08-12T00:01:37.731Z,57.86
2018-08-12T00:01:47.717Z,57.86
2018-08-12T00:01:57.777Z,57.86
2018-08-12T00:02:07.749Z,57.66
2018-08-12T00:02:17.766Z,57.86
2018-08-12T00:02:27.785Z,57.95
2018-08-12T00:02:37.816Z,57.86
2018-08-12T00:02:47.805Z,57.86
2018-08-12T00:02:57.825Z,57.86
2018-08-12T00:03:07.836Z,57.76
2018-08-12T00:03:17.847Z,57.76
2018-08-12T00:03:27.858Z,57.95
2018-08-12T00:03:37.876Z,57.76
2018-08-12T00:03:47.915Z,57.95
2018-08-12T00:03:57.921Z,57.86
2018-08-12T00:04:07.935Z,57.86
2018-08-12T00:04:17.941Z,57.95
2018-08-12T00:04:27.954Z,57.95
2018-08-12T00:04:38.011Z,57.76
2018-08-12T00:04:48.013Z,57.66
2018-08-12T00:04:57.986Z,57.86
2018-08-12T00:05:08.009Z,57.76
2018-08-12T00:05:17.731Z,57.86
2018-08-12T00:05:28.017Z,57.76
2018-08-12T00:05:38.019Z,57.86
2018-08-12T00:05:48.077Z,57.86
2018-08-12T00:05:58.042Z,57.95
2018-08-12T00:06:08.088Z,57.95
2018-08-12T00:06:18.087Z,57.95
2018-08-12T00:06:28.097Z,57.66
2018-08-12T00:06:37.837Z,57.76
2018-08-12T00:06:48.137Z,57.86
2018-08-12T00:06:58.207Z,57.95
2018-08-12T00:07:08.166Z,57.66
2018-08-12T00:07:18.193Z,57.76
2018-08-12T00:07:28.222Z,57.86
2018-08-12T00:07:38.216Z,57.86
2018-08-12T00:07:48.227Z,57.86
2018-08-12T00:07:58.237Z,57.86
2018-08-12T00:08:08.263Z,57.95
2018-08-12T00:08:18.308Z,57.95
2018-08-12T00:08:28.302Z,57.86
2018-08-12T00:08:38.276Z,57.76
2018-08-12T00:08:48.286Z,57.86
2018-08-12T00:08:58.317Z,57.86
2018-08-12T00:09:08.318Z,57.86
2018-08-12T00:09:18.357Z,57.76
2018-08-12T00:09:28.376Z,57.86
2018-08-12T00:09:38.364Z,58.04
2018-08-12T00:09:48.387Z,57.76
2018-08-12T00:09:58.417Z,57.86
2018-08-12T00:10:08.416Z,57.86
2018-08-12T00:10:18.434Z,57.86
2018-08-12T00:10:28.450Z,57.76
2018-08-12T00:10:38.477Z,57.66
2018-08-12T00:10:48.477Z,57.86
2018-08-12T00:10:58.497Z,57.76
2018-08-12T00:11:08.506Z,57.86
2018-08-12T00:11:18.517Z,57.86
2018-08-12T00:11:28.528Z,57.86
2018-08-12T00:11:38.540Z,57.66
2018-08-12T00:11:48.548Z,57.56
2018-08-12T00:11:58.556Z,57.56
2018-08-12T00:12:08.588Z,57.95
2018-08-12T00:12:18.587Z,57.95
2018-08-12T00:12:28.587Z,57.76
2018-08-12T00:12:38.649Z,57.95
2018-08-12T00:12:48.627Z,57.56
2018-08-12T00:12:58.646Z,57.76
2018-08-12T00:13:08.671Z,57.95
2018-08-12T00:13:18.658Z,57.86
2018-08-12T00:13:28.434Z,57.95
2018-08-12T00:13:38.718Z,57.56
2018-08-12T00:13:48.727Z,57.76
2018-08-12T00:13:58.755Z,57.76
2018-08-12T00:14:08.757Z,57.86
2018-08-12T00:14:18.780Z,57.66
2018-08-12T00:14:28.777Z,57.95
2018-08-12T00:14:38.778Z,57.76
2018-08-12T00:14:48.810Z,57.86
2018-08-12T00:14:58.804Z,57.76
2018-08-12T00:15:08.844Z,57.76
2018-08-12T00:15:18.985Z,57.76
2018-08-12T00:15:28.569Z,57.86
2018-08-12T00:15:38.867Z,57.86
2018-08-12T00:15:48.930Z,57.95
2018-08-12T00:15:58.907Z,57.76
2018-08-12T00:16:08.946Z,57.76
2018-08-12T00:16:18.966Z,57.66
2018-08-12T00:16:28.928Z,57.86
2018-08-12T00:16:38.987Z,57.76
2018-08-12T00:16:48.988Z,57.95
2018-08-12T00:16:59.013Z,57.95
2018-08-12T00:17:09.008Z,57.86
2018-08-12T00:17:19.031Z,57.56
2018-08-12T00:17:29.029Z,57.95
2018-08-12T00:17:39.076Z,57.95
2018-08-12T00:17:49.047Z,57.76
2018-08-12T00:17:59.068Z,57.66
2018-08-12T00:18:09.078Z,57.66
2018-08-12T00:18:18.825Z,57.86
2018-08-12T00:18:29.103Z,57.56
2018-08-12T00:18:39.107Z,57.86
2018-08-12T00:18:49.157Z,57.76
2018-08-12T00:18:59.136Z,57.76
2018-08-12T00:19:09.172Z,57.76
2018-08-12T00:19:19.186Z,57.76
2018-08-12T00:19:29.197Z,57.86
2018-08-12T00:19:39.217Z,57.95
2018-08-12T00:19:49.197Z,57.76
2018-08-12T00:19:59.237Z,57.66
2018-08-12T00:20:09.257Z,57.66
2018-08-12T00:20:19.248Z,57.86
2018-08-12T00:20:29.240Z,57.56
2018-08-12T00:20:39.283Z,57.86
2018-08-12T00:20:49.328Z,57.76
2018-08-12T00:20:59.340Z,57.95
2018-08-12T00:21:09.319Z,57.76
2018-08-12T00:21:19.330Z,57.95
2018-08-12T00:21:29.378Z,57.76
2018-08-12T00:21:39.348Z,57.95
2018-08-12T00:21:49.409Z,57.76
2018-08-12T00:21:59.414Z,57.86
2018-08-12T00:22:09.439Z,57.95
2018-08-12T00:22:19.449Z,57.95
2018-08-12T00:22:29.418Z,57.56
2018-08-12T00:22:39.429Z,57.86
2018-08-12T00:22:49.468Z,57.76
2018-08-12T00:22:59.458Z,57.86
2018-08-12T00:23:09.497Z,57.86
2018-08-12T00:23:19.508Z,57.76
2018-08-12T00:23:29.557Z,57.76
2018-08-12T00:23:39.508Z,57.86
2018-08-12T00:23:49.548Z,57.95
2018-08-12T00:23:59.588Z,57.95
2018-08-12T00:24:09.618Z,57.76
2018-08-12T00:24:19.598Z,57.86
2018-08-12T00:24:29.625Z,57.95
2018-08-12T00:24:39.598Z,57.76
2018-08-12T00:24:49.620Z,57.86
2018-08-12T00:24:59.688Z,57.86
2018-08-12T00:25:09.660Z,57.66
2018-08-12T00:25:19.678Z,57.86
2018-08-12T00:25:29.689Z,57.95
2018-08-12T00:25:39.715Z,57.95
2018-08-12T00:25:49.693Z,57.76
2018-08-12T00:25:59.750Z,57.95
2018-08-12T00:26:09.755Z,57.95
2018-08-12T00:26:19.759Z,57.66
2018-08-12T00:26:29.759Z,57.76
2018-08-12T00:26:39.788Z,57.76
2018-08-12T00:26:49.789Z,57.86
2018-08-12T00:26:59.801Z,57.95
2018-08-12T00:27:09.811Z,57.56
2018-08-12T00:27:19.580Z,57.86
2018-08-12T00:27:29.821Z,57.66
2018-08-12T00:27:39.894Z,57.95
2018-08-12T00:27:49.868Z,57.86
2018-08-12T00:27:59.883Z,57.86
2018-08-12T00:28:09.912Z,57.95
2018-08-12T00:28:19.939Z,57.95
2018-08-12T00:28:29.920Z,57.86
2018-08-12T00:28:39.929Z,57.86
2018-08-12T00:28:49.969Z,57.86
2018-08-12T00:28:59.967Z,57.76
2018-08-12T00:29:09.989Z,57.95
2018-08-12T00:29:19.979Z,57.76
2018-08-12T00:29:29.989Z,57.76
2018-08-12T00:29:40.020Z,57.76
2018-08-12T00:29:50.074Z,57.76
2018-08-12T00:30:00.047Z,57.86
2018-08-12T00:30:09.798Z,57.95
2018-08-12T00:30:20.089Z,57.76
2018-08-12T00:30:30.105Z,57.66
2018-08-12T00:30:40.114Z,57.66
2018-08-12T00:30:50.144Z,57.95
2018-08-12T00:31:00.139Z,57.66
2018-08-12T00:31:10.152Z,57.76
2018-08-12T00:31:20.161Z,57.86
2018-08-12T00:31:29.907Z,57.86
2018-08-12T00:31:40.170Z,57.76
2018-08-12T00:31:50.220Z,57.86
2018-08-12T00:32:00.230Z,57.86
2018-08-12T00:32:09.950Z,58.04
2018-08-12T00:32:19.969Z,57.86
2018-08-12T00:32:30.271Z,57.76
2018-08-12T00:32:40.239Z,57.95
2018-08-12T00:32:50.299Z,57.86
2018-08-12T00:33:00.300Z,57.86
2018-08-12T00:33:10.315Z,57.86
2018-08-12T00:33:20.062Z,57.86
2018-08-12T00:33:30.367Z,57.86
2018-08-12T00:33:40.350Z,57.86
2018-08-12T00:33:50.090Z,57.86
2018-08-12T00:34:00.392Z,57.86
2018-08-12T00:34:10.408Z,57.86
2018-08-12T00:34:20.419Z,57.86
2018-08-12T00:34:30.412Z,57.86
2018-08-12T00:34:40.439Z,58.04
2018-08-12T00:34:50.439Z,57.76
2018-08-12T00:35:00.459Z,57.86
2018-08-12T00:35:10.223Z,57.66
2018-08-12T00:35:20.500Z,58.04
2018-08-12T00:35:30.519Z,58.04
2018-08-12T00:35:40.510Z,57.95
2018-08-12T00:35:50.560Z,58.04
2018-08-12T00:36:00.570Z,57.66
2018-08-12T00:36:10.576Z,57.56
2018-08-12T00:36:20.610Z,57.86
2018-08-12T00:36:30.359Z,57.86
2018-08-12T00:36:40.610Z,57.86
2018-08-12T00:36:50.592Z,57.86
2018-08-12T00:37:00.620Z,57.86
2018-08-12T00:37:10.627Z,57.66
2018-08-12T00:37:20.650Z,58.04
2018-08-12T00:37:30.371Z,57.86
2018-08-12T00:37:40.678Z,57.86
2018-08-12T00:37:50.692Z,57.76
2018-08-12T00:38:00.691Z,57.86
2018-08-12T00:38:10.704Z,57.95
2018-08-12T00:38:20.739Z,57.76
2018-08-12T00:38:30.740Z,57.76
2018-08-12T00:38:40.770Z,57.66
2018-08-12T00:38:50.790Z,57.76
2018-08-12T00:39:00.789Z,57.66
2018-08-12T00:39:10.800Z,57.86
2018-08-12T00:39:20.840Z,57.95
2018-08-12T00:39:30.860Z,57.95
2018-08-12T00:39:40.831Z,57.76
2018-08-12T00:39:50.861Z,57.86
2018-08-12T00:40:00.891Z,57.56
2018-08-12T00:40:10.880Z,57.95
2018-08-12T00:40:20.882Z,57.66
2018-08-12T00:40:30.920Z,58.04
2018-08-12T00:40:40.934Z,58.04
2018-08-12T00:40:50.960Z,58.04
2018-08-12T00:41:00.950Z,58.04
2018-08-12T00:41:10.969Z,57.76
2018-08-12T00:41:20.980Z,57.66
2018-08-12T00:41:31.010Z,58.04
2018-08-12T00:41:41.011Z,58.24
2018-08-12T00:41:51.039Z,57.86
2018-08-12T00:42:01.013Z,57.76
2018-08-12T00:42:11.040Z,58.24
2018-08-12T00:42:21.040Z,57.66
2018-08-12T00:42:31.099Z,57.95
2018-08-12T00:42:41.065Z,57.95
2018-08-12T00:42:51.124Z,58.04
2018-08-12T00:43:01.112Z,57.66
2018-08-12T00:43:11.152Z,58.04
2018-08-12T00:43:21.141Z,57.95
2018-08-12T00:43:31.151Z,57.56
2018-08-12T00:43:41.189Z,57.66
2018-08-12T00:43:51.191Z,58.04
2018-08-12T00:44:01.214Z,57.95
2018-08-12T00:44:11.215Z,57.95
2018-08-12T00:44:20.932Z,57.95
2018-08-12T00:44:31.241Z,57.66
2018-08-12T00:44:41.264Z,57.95
2018-08-12T00:44:51.261Z,57.66
2018-08-12T00:45:01.291Z,58.34
2018-08-12T00:45:11.304Z,57.56
2018-08-12T00:45:21.352Z,57.66
2018-08-12T00:45:31.061Z,57.66
2018-08-12T00:45:41.321Z,57.76
2018-08-12T00:45:51.374Z,58.04
2018-08-12T00:46:01.361Z,57.66
2018-08-12T00:46:11.381Z,58.24
2018-08-12T00:46:21.391Z,57.95
2018-08-12T00:46:31.391Z,57.66
2018-08-12T00:46:41.414Z,57.66
2018-08-12T00:46:51.441Z,57.76
2018-08-12T00:47:01.441Z,57.56
2018-08-12T00:47:11.170Z,57.76
2018-08-12T00:47:21.200Z,57.66
2018-08-12T00:47:31.477Z,58.04
2018-08-12T00:47:41.542Z,57.56
2018-08-12T00:47:51.524Z,57.95
2018-08-12T00:48:01.505Z,57.66
2018-08-12T00:48:11.561Z,57.66
2018-08-12T00:48:21.571Z,57.66
2018-08-12T00:48:31.560Z,57.66
2018-08-12T00:48:41.591Z,57.86
2018-08-12T00:48:51.611Z,57.76
2018-08-12T00:49:01.601Z,58.14
2018-08-12T00:49:11.621Z,57.66
2018-08-12T00:49:21.658Z,57.95
2018-08-12T00:49:31.681Z,57.66
2018-08-12T00:49:41.660Z,57.86
2018-08-12T00:49:51.671Z,58.04
2018-08-12T00:50:01.710Z,57.95
2018-08-12T00:50:11.717Z,58.04
2018-08-12T00:50:21.721Z,57.95
2018-08-12T00:50:31.462Z,57.86
2018-08-12T00:50:41.732Z,58.14
2018-08-12T00:50:51.752Z,58.14
2018-08-12T00:51:01.841Z,57.66
2018-08-12T00:51:11.812Z,57.76
2018-08-12T00:51:21.795Z,58.04
2018-08-12T00:51:31.812Z,58.24
2018-08-12T00:51:41.811Z,58.24
2018-08-12T00:51:51.842Z,57.95
2018-08-12T00:52:01.852Z,58.24
2018-08-12T00:52:11.612Z,58.34
2018-08-12T00:52:21.883Z,58.24
2018-08-12T00:52:31.910Z,57.95
2018-08-12T00:52:41.953Z,57.95
2018-08-12T00:52:51.902Z,58.24
2018-08-12T00:53:01.940Z,58.24
2018-08-12T00:53:11.682Z,58.24
2018-08-12T00:53:21.981Z,57.95
2018-08-12T00:53:31.972Z,57.95
2018-08-12T00:53:42.012Z,58.24
2018-08-12T00:53:52.022Z,57.95
2018-08-12T00:54:02.041Z,57.95
2018-08-12T00:54:11.762Z,58.14
2018-08-12T00:54:22.042Z,58.04
2018-08-12T00:54:32.052Z,58.24
2018-08-12T00:54:42.072Z,57.95
2018-08-12T00:54:52.093Z,57.95
2018-08-12T00:55:02.082Z,57.95
2018-08-12T00:55:12.109Z,58.24
2018-08-12T00:55:22.198Z,57.95
2018-08-12T00:55:32.145Z,58.04
2018-08-12T00:55:42.192Z,58.24
2018-08-12T00:55:52.182Z,57.95
2018-08-12T00:56:02.182Z,58.24
2018-08-12T00:56:12.220Z,57.95
2018-08-12T00:56:22.235Z,58.24
2018-08-12T00:56:32.221Z,57.95
2018-08-12T00:56:42.232Z,58.24
2018-08-12T00:56:52.242Z,58.24
2018-08-12T00:57:02.271Z,57.95
2018-08-12T00:57:12.292Z,58.24
2018-08-12T00:57:22.302Z,58.04
2018-08-12T00:57:32.314Z,58.24
2018-08-12T00:57:42.321Z,58.34
2018-08-12T00:57:52.354Z,58.04
2018-08-12T00:58:02.341Z,58.24
2018-08-12T00:58:12.364Z,58.04
2018-08-12T00:58:22.383Z,58.14
2018-08-12T00:58:32.423Z,57.95
2018-08-12T00:58:42.422Z,58.24
2018-08-12T00:58:52.436Z,58.04
2018-08-12T00:59:02.434Z,58.24
2018-08-12T00:59:12.475Z,58.24
2018-08-12T00:59:22.452Z,58.24
2018-08-12T00:59:32.516Z,58.14
2018-08-12T00:59:42.503Z,57.95
2018-08-12T00:59:52.493Z,58.04
2018-08-12T01:00:02.552Z,58.04
2018-08-12T01:00:12.522Z,58.24
2018-08-12T01:00:22.553Z,58.24
2018-08-12T01:00:32.300Z,58.24
2018-08-12T01:00:42.552Z,58.04
2018-08-12T01:00:52.573Z,58.24
2018-08-12T01:01:02.593Z,58.34
2018-08-12T01:01:12.633Z,58.24
2018-08-12T01:01:22.643Z,58.24
2018-08-12T01:01:32.644Z,58.24
2018-08-12T01:01:42.403Z,58.24
2018-08-12T01:01:52.660Z,58.04
2018-08-12T01:02:02.423Z,58.04
2018-08-12T01:02:12.694Z,58.04
2018-08-12T01:02:22.713Z,57.76
2018-08-12T01:02:32.728Z,58.04
2018-08-12T01:02:42.763Z,58.34
2018-08-12T01:02:52.763Z,58.14
2018-08-12T01:03:02.793Z,58.04
2018-08-12T01:03:12.782Z,58.04
2018-08-12T01:03:22.790Z,57.95
2018-08-12T01:03:32.805Z,58.04
2018-08-12T01:03:42.813Z,57.76
2018-08-12T01:03:52.862Z,58.14
2018-08-12T01:04:02.832Z,58.04
2018-08-12T01:04:12.887Z,57.95
2018-08-12T01:04:22.593Z,57.86
2018-08-12T01:04:32.873Z,57.86
2018-08-12T01:04:42.920Z,57.86
2018-08-12T01:04:52.934Z,57.95
2018-08-12T01:05:02.932Z,57.86
2018-08-12T01:05:12.952Z,57.76
2018-08-12T01:05:22.963Z,57.86
2018-08-12T01:05:32.979Z,58.04
2018-08-12T01:05:42.973Z,57.86
2018-08-12T01:05:53.004Z,58.04
2018-08-12T01:06:02.995Z,57.76
2018-08-12T01:06:13.005Z,57.86
2018-08-12T01:06:23.064Z,57.86
2018-08-12T01:06:33.044Z,58.14
2018-08-12T01:06:43.084Z,57.86
2018-08-12T01:06:53.095Z,58.04
2018-08-12T01:07:03.094Z,58.04
2018-08-12T01:07:13.144Z,58.14
2018-08-12T01:07:23.127Z,58.34
2018-08-12T01:07:33.164Z,58.14
2018-08-12T01:07:43.155Z,57.76
2018-08-12T01:07:53.134Z,58.14
2018-08-12T01:08:03.175Z,58.04
2018-08-12T01:08:13.154Z,58.04
2018-08-12T01:08:23.209Z,58.04
2018-08-12T01:08:32.924Z,58.04
2018-08-12T01:08:43.215Z,57.86
2018-08-12T01:08:53.243Z,57.86
2018-08-12T01:09:03.275Z,57.86
2018-08-12T01:09:13.257Z,57.86
2018-08-12T01:09:23.004Z,57.86
2018-08-12T01:09:33.316Z,57.86
2018-08-12T01:09:43.303Z,58.24
2018-08-12T01:09:53.324Z,58.34
2018-08-12T01:10:03.350Z,57.95
2018-08-12T01:10:13.361Z,57.86
2018-08-12T01:10:23.376Z,57.95
2018-08-12T01:10:33.396Z,58.34
2018-08-12T01:10:43.394Z,58.34
2018-08-12T01:10:53.414Z,58.24
2018-08-12T01:11:03.444Z,57.86
2018-08-12T01:11:13.424Z,57.86
2018-08-12T01:11:23.444Z,57.86
2018-08-12T01:11:33.464Z,58.04
2018-08-12T01:11:43.497Z,57.86
2018-08-12T01:11:53.484Z,57.86
2018-08-12T01:12:03.522Z,58.04
2018-08-12T01:12:13.525Z,58.04
2018-08-12T01:12:23.514Z,58.04
2018-08-12T01:12:33.544Z,57.86
2018-08-12T01:12:43.543Z,57.76
2018-08-12T01:12:53.544Z,58.04
2018-08-12T01:13:03.564Z,57.86
2018-08-12T01:13:13.623Z,57.86
2018-08-12T01:13:23.664Z,57.86
2018-08-12T01:13:33.625Z,57.95
2018-08-12T01:13:43.375Z,58.34
2018-08-12T01:13:53.654Z,57.76
2018-08-12T01:14:03.668Z,57.76
2018-08-12T01:14:13.685Z,57.95
2018-08-12T01:14:23.690Z,57.95
2018-08-12T01:14:33.695Z,57.95
2018-08-12T01:14:43.738Z,57.95
2018-08-12T01:14:53.725Z,57.95
2018-08-12T01:15:03.755Z,57.95
2018-08-12T01:15:13.775Z,57.86
2018-08-12T01:15:23.755Z,58.34
2018-08-12T01:15:33.805Z,57.86
2018-08-12T01:15:43.789Z,57.86
2018-08-12T01:15:53.805Z,57.95
2018-08-12T01:16:03.834Z,58.34
2018-08-12T01:16:13.893Z,58.24
2018-08-12T01:16:23.872Z,58.04
2018-08-12T01:16:33.845Z,58.04
2018-08-12T01:16:43.897Z,58.04
2018-08-12T01:16:53.915Z,58.24
2018-08-12T01:17:03.915Z,58.34
2018-08-12T01:17:13.680Z,58.24
2018-08-12T01:17:23.946Z,58.24
2018-08-12T01:17:33.989Z,58.34
2018-08-12T01:17:43.985Z,58.24
2018-08-12T01:17:53.994Z,58.34
2018-08-12T01:18:03.995Z,58.34
2018-08-12T01:18:14.015Z,58.14
2018-08-12T01:18:24.036Z,57.95
2018-08-12T01:18:34.066Z,58.34
2018-08-12T01:18:44.045Z,58.34
2018-08-12T01:18:54.054Z,58.34
2018-08-12T01:19:04.070Z,58.14
2018-08-12T01:19:14.046Z,58.04
2018-08-12T01:19:24.125Z,58.24
2018-08-12T01:19:34.135Z,58.04
2018-08-12T01:19:44.126Z,58.24
2018-08-12T01:19:54.175Z,58.72
2018-08-12T01:20:04.176Z,58.72
2018-08-12T01:20:14.190Z,58.72
2018-08-12T01:20:24.216Z,58.63
2018-08-12T01:20:34.205Z,58.24
2018-08-12T01:20:44.215Z,58.72
2018-08-12T01:20:54.206Z,58.04
2018-08-12T01:21:04.206Z,58.24
2018-08-12T01:21:14.255Z,58.34
2018-08-12T01:21:24.236Z,58.24
2018-08-12T01:21:34.295Z,58.24
2018-08-12T01:21:44.315Z,58.34
2018-08-12T01:21:54.285Z,58.24
2018-08-12T01:22:04.073Z,58.63
2018-08-12T01:22:14.346Z,58.72
2018-08-12T01:22:24.346Z,58.34
2018-08-12T01:22:34.379Z,58.63
2018-08-12T01:22:44.396Z,58.63
2018-08-12T01:22:54.399Z,58.72
2018-08-12T01:23:04.412Z,58.63
2018-08-12T01:23:14.436Z,58.44
2018-08-12T01:23:24.464Z,58.63
2018-08-12T01:23:34.426Z,58.53
2018-08-12T01:23:44.456Z,58.63
2018-08-12T01:23:54.506Z,58.63
2018-08-12T01:24:04.467Z,58.63
2018-08-12T01:24:14.506Z,58.63
2018-08-12T01:24:24.525Z,58.63
2018-08-12T01:24:34.509Z,58.53
2018-08-12T01:24:44.546Z,58.72
2018-08-12T01:24:54.581Z,58.63
2018-08-12T01:25:04.307Z,58.53
2018-08-12T01:25:14.606Z,58.44
2018-08-12T01:25:24.596Z,58.63
2018-08-12T01:25:34.645Z,58.63
2018-08-12T01:25:44.626Z,58.63
2018-08-12T01:25:54.626Z,58.63
2018-08-12T01:26:04.665Z,58.53
2018-08-12T01:26:14.655Z,58.72
2018-08-12T01:26:24.685Z,58.63
2018-08-12T01:26:34.732Z,58.63
2018-08-12T01:26:44.716Z,58.72
2018-08-12T01:26:54.739Z,58.72
2018-08-12T01:27:04.746Z,58.63
2018-08-12T01:27:14.745Z,58.63
2018-08-12T01:27:24.777Z,58.72
2018-08-12T01:27:34.796Z,58.24
2018-08-12T01:27:44.796Z,58.72
2018-08-12T01:27:54.826Z,58.63
2018-08-12T01:28:04.820Z,58.63
2018-08-12T01:28:14.824Z,58.53
2018-08-12T01:28:24.837Z,58.53
2018-08-12T01:28:34.847Z,58.72
2018-08-12T01:28:44.856Z,58.44
2018-08-12T01:28:54.887Z,58.44
2018-08-12T01:29:04.907Z,58.24
2018-08-12T01:29:14.946Z,58.24
2018-08-12T01:29:24.656Z,58.53
2018-08-12T01:29:34.946Z,58.63
2018-08-12T01:29:44.953Z,58.72
2018-08-12T01:29:54.957Z,58.53
2018-08-12T01:30:05.016Z,58.24
2018-08-12T01:30:14.997Z,58.63
2018-08-12T01:30:24.998Z,58.72
2018-08-12T01:30:35.028Z,58.63
2018-08-12T01:30:45.037Z,58.63
2018-08-12T01:30:55.057Z,58.72
2018-08-12T01:31:05.073Z,58.72
2018-08-12T01:31:15.142Z,58.72
2018-08-12T01:31:25.117Z,58.63
2018-08-12T01:31:35.177Z,58.63
2018-08-12T01:31:44.849Z,58.53
2018-08-12T01:31:55.196Z,58.72
2018-08-12T01:32:05.168Z,58.63
2018-08-12T01:32:15.187Z,58.63
2018-08-12T01:32:25.180Z,58.72
2018-08-12T01:32:35.275Z,58.72
2018-08-12T01:32:45.208Z,58.72
2018-08-12T01:32:55.237Z,58.63
2018-08-12T01:33:04.997Z,58.63
2018-08-12T01:33:15.227Z,58.63
2018-08-12T01:33:25.279Z,58.72
2018-08-12T01:33:35.355Z,58.72
2018-08-12T01:33:45.280Z,58.72
2018-08-12T01:33:55.307Z,58.63
2018-08-12T01:34:05.359Z,58.63
2018-08-12T01:34:15.357Z,58.63
2018-08-12T01:34:25.350Z,58.63
2018-08-12T01:34:35.350Z,58.63
2018-08-12T01:34:45.397Z,58.63
2018-08-12T01:34:55.420Z,58.72
2018-08-12T01:35:05.416Z,58.63
2018-08-12T01:35:15.428Z,58.63
2018-08-12T01:35:25.433Z,58.44
2018-08-12T01:35:35.449Z,58.44
2018-08-12T01:35:45.549Z,58.72
2018-08-12T01:35:55.710Z,58.24
2018-08-12T01:36:05.717Z,58.24
2018-08-12T01:36:15.478Z,58.63
2018-08-12T01:36:25.518Z,58.53
2018-08-12T01:36:35.546Z,58.44
2018-08-12T01:36:45.548Z,58.34
2018-08-12T01:36:55.539Z,58.24
2018-08-12T01:37:05.718Z,58.34
2018-08-12T01:37:15.568Z,58.44
2018-08-12T01:37:25.595Z,58.24
2018-08-12T01:37:35.608Z,58.44
2018-08-12T01:37:45.609Z,58.34
2018-08-12T01:37:55.638Z,58.44
2018-08-12T01:38:05.649Z,58.34
2018-08-12T01:38:15.658Z,58.44
2018-08-12T01:38:25.689Z,58.44
2018-08-12T01:38:35.689Z,58.34
2018-08-12T01:38:45.688Z,58.44
2018-08-12T01:38:55.720Z,58.44
2018-08-12T01:39:05.753Z,58.24
2018-08-12T01:39:15.770Z,58.34
2018-08-12T01:39:25.772Z,58.34
2018-08-12T01:39:35.769Z,58.24
2018-08-12T01:39:45.519Z,58.34
2018-08-12T01:39:55.803Z,58.44
2018-08-12T01:40:05.794Z,58.24
2018-08-12T01:40:15.838Z,58.24
2018-08-12T01:40:25.859Z,58.24
2018-08-12T01:40:35.878Z,58.44
2018-08-12T01:40:45.868Z,58.34
2018-08-12T01:40:55.869Z,58.34
2018-08-12T01:41:05.898Z,58.44
2018-08-12T01:41:15.888Z,58.44
2018-08-12T01:41:25.928Z,58.34
2018-08-12T01:41:35.942Z,58.44
2018-08-12T01:41:45.919Z,58.44
2018-08-12T01:41:55.958Z,58.44
2018-08-12T01:42:05.991Z,58.34
2018-08-12T01:42:15.993Z,58.44
2018-08-12T01:42:25.978Z,58.44
2018-08-12T01:42:36.029Z,58.24
2018-08-12T01:42:46.064Z,58.14
2018-08-12T01:42:56.062Z,58.53
2018-08-12T01:43:06.039Z,58.44
2018-08-12T01:43:16.029Z,58.44
2018-08-12T01:43:26.090Z,58.44
2018-08-12T01:43:36.090Z,58.53
2018-08-12T01:43:46.100Z,58.44
2018-08-12T01:43:56.138Z,58.44
2018-08-12T01:44:06.130Z,58.34
2018-08-12T01:44:16.149Z,58.53
2018-08-12T01:44:26.340Z,58.53
2018-08-12T01:44:36.180Z,58.24
2018-08-12T01:44:46.179Z,58.53
2018-08-12T01:44:56.210Z,58.53
2018-08-12T01:45:06.209Z,58.24
2018-08-12T01:45:16.259Z,58.34
2018-08-12T01:45:26.240Z,58.24
2018-08-12T01:45:36.269Z,58.34
2018-08-12T01:45:46.272Z,58.53
2018-08-12T01:45:55.999Z,58.44
2018-08-12T01:46:06.300Z,58.44
2018-08-12T01:46:16.350Z,58.34
2018-08-12T01:46:26.359Z,58.44
2018-08-12T01:46:36.339Z,58.34
2018-08-12T01:46:46.380Z,58.44
2018-08-12T01:46:56.388Z,58.34
2018-08-12T01:47:06.389Z,58.34
2018-08-12T01:47:16.398Z,58.44
2018-08-12T01:47:26.429Z,58.44
2018-08-12T01:47:36.399Z,58.24
2018-08-12T01:47:46.456Z,58.53
2018-08-12T01:47:56.459Z,58.24
2018-08-12T01:48:06.470Z,58.53
2018-08-12T01:48:16.233Z,58.24
2018-08-12T01:48:26.479Z,58.34
2018-08-12T01:48:36.489Z,58.53
2018-08-12T01:48:46.539Z,58.34
2018-08-12T01:48:56.551Z,58.24
2018-08-12T01:49:06.571Z,58.34
2018-08-12T01:49:16.571Z,58.53
2018-08-12T01:49:26.593Z,58.53
2018-08-12T01:49:36.569Z,58.44
2018-08-12T01:49:46.599Z,58.24
2018-08-12T01:49:56.667Z,58.34
2018-08-12T01:50:06.665Z,58.34
2018-08-12T01:50:16.622Z,58.24
2018-08-12T01:50:26.669Z,58.53
2018-08-12T01:50:36.679Z,58.44
2018-08-12T01:50:46.710Z,58.34
2018-08-12T01:50:56.709Z,58.53
2018-08-12T01:51:06.751Z,58.34
2018-08-12T01:51:16.711Z,58.44
2018-08-12T01:51:26.714Z,58.53
2018-08-12T01:51:36.760Z,58.44
2018-08-12T01:51:46.759Z,58.44
2018-08-12T01:51:56.801Z,58.34
2018-08-12T01:52:06.800Z,58.44
2018-08-12T01:52:16.821Z,58.44
2018-08-12T01:52:26.822Z,58.44
2018-08-12T01:52:36.866Z,58.44
2018-08-12T01:52:46.830Z,58.44
2018-08-12T01:52:56.840Z,58.44
2018-08-12T01:53:06.609Z,58.44
2018-08-12T01:53:16.886Z,58.44
2018-08-12T01:53:26.894Z,58.53
2018-08-12T01:53:36.910Z,58.44
2018-08-12T01:53:46.950Z,58.44
2018-08-12T01:53:56.940Z,58.44
2018-08-12T01:54:06.700Z,58.14
2018-08-12T01:54:17.000Z,58.44
2018-08-12T01:54:27.030Z,58.53
2018-08-12T01:54:37.021Z,58.53
2018-08-12T01:54:47.030Z,58.44
2018-08-12T01:54:57.010Z,58.14
2018-08-12T01:55:07.050Z,58.14
2018-08-12T01:55:17.060Z,58.24
2018-08-12T01:55:27.050Z,58.14
2018-08-12T01:55:37.096Z,58.14
2018-08-12T01:55:47.100Z,58.34
2018-08-12T01:55:57.090Z,58.92
2018-08-12T01:56:07.127Z,58.14
2018-08-12T01:56:17.170Z,58.44
2018-08-12T01:56:27.161Z,58.14
2018-08-12T01:56:37.150Z,58.14
2018-08-12T01:56:47.190Z,58.92
2018-08-12T01:56:57.200Z,58.92
2018-08-12T01:57:07.190Z,58.14
2018-08-12T01:57:17.212Z,58.34
2018-08-12T01:57:27.240Z,58.92
2018-08-12T01:57:37.241Z,58.14
2018-08-12T01:57:47.260Z,58.14
2018-08-12T01:57:57.021Z,58.82
2018-08-12T01:58:07.310Z,58.72
2018-08-12T01:58:17.300Z,58.92
2018-08-12T01:58:27.322Z,58.34
2018-08-12T01:58:37.310Z,58.14
2018-08-12T01:58:47.341Z,58.24
2018-08-12T01:58:57.362Z,58.34
2018-08-12T01:59:07.371Z,58.24
2018-08-12T01:59:17.410Z,58.14
2018-08-12T01:59:27.401Z,58.14
2018-08-12T01:59:37.411Z,58.24
2018-08-12T01:59:47.431Z,58.44
2018-08-12T01:59:57.161Z,58.24
2018-08-12T02:00:07.450Z,58.14
2018-08-12T02:00:17.441Z,58.34
2018-08-12T02:00:27.490Z,58.14
2018-08-12T02:00:37.504Z,58.34
2018-08-12T02:00:47.537Z,58.44
2018-08-12T02:00:57.530Z,58.92
2018-08-12T02:01:07.549Z,58.14
2018-08-12T02:01:17.541Z,58.24
2018-08-12T02:01:27.562Z,58.34
2018-08-12T02:01:37.586Z,58.14
2018-08-12T02:01:47.581Z,58.34
2018-08-12T02:01:57.601Z,58.34
2018-08-12T02:02:07.613Z,58.34
2018-08-12T02:02:17.691Z,58.34
2018-08-12T02:02:27.641Z,58.92
2018-08-12T02:02:37.651Z,58.34
2018-08-12T02:02:47.692Z,58.82
2018-08-12T02:02:57.691Z,58.44
2018-08-12T02:03:07.701Z,58.92
2018-08-12T02:03:17.731Z,58.34
2018-08-12T02:03:27.724Z,58.34
2018-08-12T02:03:37.720Z,58.92
2018-08-12T02:03:47.761Z,58.82
2018-08-12T02:03:57.491Z,58.82
2018-08-12T02:04:07.760Z,58.44
2018-08-12T02:04:17.542Z,58.82
2018-08-12T02:04:27.821Z,58.34
2018-08-12T02:04:37.814Z,58.34
2018-08-12T02:04:47.831Z,58.92
2018-08-12T02:04:57.841Z,58.92
2018-08-12T02:05:07.867Z,58.82
2018-08-12T02:05:17.904Z,58.34
2018-08-12T02:05:27.891Z,58.34
2018-08-12T02:05:37.901Z,58.34
2018-08-12T02:05:47.911Z,58.92
2018-08-12T02:05:57.975Z,58.14
2018-08-12T02:06:07.942Z,58.92
2018-08-12T02:06:17.951Z,58.34
2018-08-12T02:06:27.991Z,58.14
2018-08-12T02:06:37.982Z,58.34
2018-08-12T02:06:48.003Z,58.34
2018-08-12T02:06:58.042Z,58.92
2018-08-12T02:07:08.023Z,58.34
2018-08-12T02:07:18.022Z,59.01
2018-08-12T02:07:28.052Z,58.34
2018-08-12T02:07:38.057Z,58.82
2018-08-12T02:07:48.082Z,58.72
2018-08-12T02:07:58.123Z,58.92
2018-08-12T02:08:08.133Z,58.92
2018-08-12T02:08:17.866Z,58.34
2018-08-12T02:08:28.143Z,58.82
2018-08-12T02:08:38.182Z,58.44
2018-08-12T02:08:48.152Z,58.92
2018-08-12T02:08:58.183Z,58.82